Time;durP1;ratioP1;P1;durP2;ratioP2;P2;SDS_P1;SDS_P2;PMS_P1;PMS_P2;Temp;Humidity;BMP_temperature;BMP_pressure;BME280_temperature;BME280_humidity;BME280_pressure;Samples;Min_cycle;Max_cycle;Signal;HPM_P1;HPM_P2
2022/07/08 00:01:27;;;;;;;3.67;1.00;;;;;;;27.44;42.78;99469.59;5026740;28;20082;-71
2022/07/08 00:03:53;;;;;;;3.22;0.93;;;;;;;27.42;43.15;99465.50;5026686;28;20044;-69
2022/07/08 00:06:19;;;;;;;1.33;1.17;;;;;;;27.57;43.04;99470.97;5026569;28;20066;-71
2022/07/08 00:08:44;;;;;;;3.58;1.40;;;;;;;27.53;42.57;99475.34;5042853;28;20039;-70
2022/07/08 00:11:11;;;;;;;4.25;1.20;;;;;;;27.55;43.83;99467.69;5059126;28;20664;-70
2022/07/08 00:13:37;;;;;;;3.42;1.20;;;;;;;27.49;43.01;99468.78;5026565;28;20157;-71
2022/07/08 00:16:03;;;;;;;7.15;1.25;;;;;;;27.51;42.41;99459.22;5026003;28;20080;-71
2022/07/08 00:18:29;;;;;;;2.45;0.93;;;;;;;27.46;43.31;99461.16;5025845;28;20052;-71
2022/07/08 00:20:55;;;;;;;4.15;1.33;;;;;;;27.42;43.20;99454.59;5042270;28;20522;-71
2022/07/08 00:23:21;;;;;;;1.75;1.20;;;;;;;27.33;42.75;99454.31;5026028;28;20039;-70
2022/07/08 00:25:47;;;;;;;5.20;1.33;;;;;;;27.29;43.72;99463.31;5042254;28;20047;-71
2022/07/08 00:28:13;;;;;;;3.95;1.13;;;;;;;27.24;43.18;99458.63;5058995;28;20040;-71
2022/07/08 00:30:41;;;;;;;7.47;1.17;;;;;;;27.20;42.91;99462.97;5026142;28;20048;-75
2022/07/08 00:33:07;;;;;;;2.53;1.00;;;;;;;27.18;43.27;99448.81;5076036;28;20101;-71
2022/07/08 00:35:33;;;;;;;4.53;1.00;;;;;;;27.08;42.69;99448.78;5026094;28;20071;-71
2022/07/08 00:37:59;;;;;;;5.70;1.20;;;;;;;27.03;43.12;99453.41;5058823;28;20161;-71
2022/07/08 00:40:25;;;;;;;5.55;1.35;;;;;;;26.96;43.53;99450.09;5058861;28;20131;-71
2022/07/08 00:42:51;;;;;;;3.15;1.20;;;;;;;26.81;42.62;99453.63;5040888;28;20051;-71
2022/07/08 00:45:19;;;;;;;4.65;1.10;;;;;;;26.84;43.53;99463.16;5042521;28;20144;-71
2022/07/08 00:47:45;;;;;;;2.08;1.00;;;;;;;26.76;43.63;99459.03;5025301;28;20139;-71
2022/07/08 00:50:11;;;;;;;7.10;1.10;;;;;;;26.80;43.85;99454.69;5041848;28;20107;-71
2022/07/08 00:52:38;;;;;;;2.17;1.20;;;;;;;26.87;43.61;99455.25;5075347;28;20048;-71
2022/07/08 00:55:04;;;;;;;3.20;1.13;;;;;;;26.72;43.19;99452.50;5041796;28;20039;-70
2022/07/08 00:57:30;;;;;;;6.30;2.55;;;;;;;26.79;43.58;99460.41;5041462;28;20138;-71
2022/07/08 00:59:57;;;;;;;3.60;1.10;;;;;;;26.79;43.07;99465.84;5041666;28;20040;-70
2022/07/08 01:02:24;;;;;;;2.40;0.93;;;;;;;26.73;42.95;99454.13;5058132;28;20047;-70
2022/07/08 01:04:52;;;;;;;6.68;1.63;;;;;;;26.74;43.05;99463.13;5058214;28;20138;-70
2022/07/08 01:07:18;;;;;;;4.15;1.33;;;;;;;26.85;43.31;99464.81;5025025;28;20044;-71
2022/07/08 01:09:44;;;;;;;2.30;1.13;;;;;;;26.77;43.53;99468.03;5074685;28;20040;-72
2022/07/08 01:12:10;;;;;;;4.95;1.08;;;;;;;26.87;43.07;99473.50;5058224;28;20057;-70
2022/07/08 01:14:36;;;;;;;3.15;1.00;;;;;;;26.70;42.70;99462.00;5041307;28;20079;-70
2022/07/08 01:17:03;;;;;;;2.10;1.13;;;;;;;26.83;43.11;99442.44;5041197;28;20079;-71
2022/07/08 01:19:31;;;;;;;3.28;1.23;;;;;;;26.88;41.97;99477.91;5074480;28;20141;-70
2022/07/08 01:21:56;;;;;;;6.57;1.50;;;;;;;26.91;42.14;99480.09;5041082;28;20047;-71
2022/07/08 01:24:22;;;;;;;3.47;0.88;;;;;;;26.98;41.92;99483.38;5024676;28;20104;-71
2022/07/08 01:26:48;;;;;;;1.30;1.00;;;;;;;26.99;42.30;99487.72;5040855;28;20093;-69
2022/07/08 01:29:14;;;;;;;1.35;0.93;;;;;;;26.84;41.38;99476.78;5058547;28;20044;-74
2022/07/08 01:31:40;;;;;;;4.10;1.00;;;;;;;26.76;41.00;99483.56;5058688;28;20086;-70
2022/07/08 01:34:06;;;;;;;6.57;1.00;;;;;;;26.79;42.49;99487.66;5024871;28;20131;-71
2022/07/08 01:36:32;;;;;;;4.43;1.10;;;;;;;26.77;42.85;99484.41;5074986;28;20138;-69
2022/07/08 01:38:58;;;;;;;1.85;0.90;;;;;;;26.88;41.78;99494.25;5041105;28;20043;-69
2022/07/08 01:41:24;;;;;;;2.78;0.90;;;;;;;26.91;41.53;99491.00;5041204;28;20127;-69
2022/07/08 01:43:50;;;;;;;3.60;0.90;;;;;;;26.90;42.59;99492.06;5040738;28;20127;-70
2022/07/08 01:46:16;;;;;;;4.72;1.13;;;;;;;26.74;42.26;99476.75;5057467;28;20066;-74
2022/07/08 01:48:42;;;;;;;1.67;0.90;;;;;;;26.87;42.24;99493.44;5058027;28;20039;-70
2022/07/08 01:51:08;;;;;;;2.63;0.98;;;;;;;26.91;42.55;99489.06;5040637;28;20040;-70
2022/07/08 01:53:34;;;;;;;1.95;0.80;;;;;;;27.03;41.46;99494.31;5057023;28;20044;-70
2022/07/08 01:55:59;;;;;;;1.33;0.95;;;;;;;27.08;41.59;99500.56;5024057;28;20165;-70
2022/07/08 01:58:25;;;;;;;0.95;0.80;;;;;;;27.01;41.46;99494.56;5023955;28;20039;-69
2022/07/08 02:00:52;;;;;;;3.15;0.73;;;;;;;27.21;41.42;99494.63;5023984;28;20039;-70
2022/07/08 02:03:18;;;;;;;6.10;1.00;;;;;;;27.35;41.23;99498.50;5023664;28;20121;-71
2022/07/08 02:05:44;;;;;;;4.00;0.95;;;;;;;27.78;40.13;99505.38;5023886;28;20048;-73
2022/07/08 02:08:09;;;;;;;3.72;0.90;;;;;;;27.70;39.92;99487.63;5040274;28;20468;-70
2022/07/08 02:13:19;;;;;;;2.83;0.80;;;;;;;27.36;40.46;99500.13;5059353;28;20050;-71
2022/07/08 02:16:05;;;;;;;4.22;0.80;;;;;;;27.49;40.29;99499.59;5048662;28;20048;-71
2022/07/08 02:18:31;;;;;;;5.53;0.85;;;;;;;27.28;40.65;99502.56;5023280;28;20059;-71
2022/07/08 02:20:57;;;;;;;5.45;1.10;;;;;;;27.28;40.64;99502.56;5040090;28;20052;-70
2022/07/08 02:23:25;;;;;;;3.13;1.02;;;;;;;27.38;40.53;99502.59;5023417;28;20035;-70
2022/07/08 02:25:51;;;;;;;0.90;0.70;;;;;;;27.38;40.25;99508.06;5023496;28;20072;-71
2022/07/08 02:28:17;;;;;;;2.25;1.00;;;;;;;27.47;40.06;99515.44;5023550;28;20151;-70
2022/07/08 02:30:42;;;;;;;3.33;0.90;;;;;;;27.42;39.52;99514.59;5056870;28;20047;-70
2022/07/08 02:33:08;;;;;;;2.40;0.70;;;;;;;27.39;40.13;99520.59;5039715;28;20043;-70
2022/07/08 02:35:34;;;;;;;0.70;0.68;;;;;;;27.40;40.30;99512.13;5023906;28;20054;-71
2022/07/08 02:38:00;;;;;;;2.60;0.70;;;;;;;27.38;39.77;99522.53;5046160;28;20067;-70
2022/07/08 02:40:26;;;;;;;1.05;0.80;;;;;;;27.46;39.58;99521.16;5029533;28;20039;-69
2022/07/08 02:42:52;;;;;;;1.10;1.00;;;;;;;27.41;39.35;99526.59;5032403;28;20040;-70
2022/07/08 02:45:17;;;;;;;1.35;0.82;;;;;;;27.41;39.28;99521.97;5028210;28;20507;-70
2022/07/08 02:47:43;;;;;;;2.40;0.80;;;;;;;27.37;39.36;99529.03;5023542;28;20044;-71
2022/07/08 02:50:09;;;;;;;0.80;0.70;;;;;;;27.39;39.53;99534.22;5039882;28;20446;-70
2022/07/08 02:52:35;;;;;;;1.27;0.60;;;;;;;27.41;39.48;99527.44;5040260;28;20071;-70
2022/07/08 02:55:02;;;;;;;3.60;0.88;;;;;;;27.54;39.38;99545.16;5039686;28;20036;-70
2022/07/08 02:57:28;;;;;;;1.95;0.80;;;;;;;27.38;39.82;99538.06;5023038;28;20060;-69
2022/07/08 02:59:54;;;;;;;1.42;0.90;;;;;;;27.36;39.77;99535.59;5056037;28;20047;-71
2022/07/08 03:02:20;;;;;;;4.22;0.98;;;;;;;27.34;39.51;99545.16;5039309;28;20040;-73
2022/07/08 03:04:46;;;;;;;3.67;0.80;;;;;;;27.36;39.13;99549.25;5055890;28;20096;-70
2022/07/08 03:07:14;;;;;;;1.85;0.70;;;;;;;27.38;39.83;99551.69;5023002;28;20043;-69
2022/07/08 03:09:39;;;;;;;3.22;0.70;;;;;;;27.33;39.59;99557.13;5022998;28;20882;-70
2022/07/08 03:12:06;;;;;;;1.20;0.90;;;;;;;27.35;39.99;99557.69;5039032;28;20046;-70
2022/07/08 03:14:32;;;;;;;2.08;0.98;;;;;;;27.39;39.71;99561.50;5055584;28;20419;-69
2022/07/08 03:16:57;;;;;;;7.38;1.23;;;;;;;27.31;39.79;99562.03;5038885;28;20040;-69
2022/07/08 03:19:23;;;;;;;1.65;0.85;;;;;;;27.35;39.99;99563.16;5022911;28;20325;-71
2022/07/08 03:21:49;;;;;;;5.93;1.42;;;;;;;27.31;40.17;99564.75;5022970;28;20039;-69
2022/07/08 03:24:15;;;;;;;3.90;0.90;;;;;;;27.32;39.47;99567.25;5022483;28;20468;-70
2022/07/08 03:26:41;;;;;;;2.97;1.20;;;;;;;27.33;39.49;99571.59;5039050;28;20556;-70
2022/07/08 03:29:07;;;;;;;1.95;0.93;;;;;;;27.44;39.70;99569.72;5022540;28;20582;-70
2022/07/08 03:31:32;;;;;;;3.97;1.17;;;;;;;27.48;39.26;99576.25;5038941;28;20044;-70
2022/07/08 03:33:58;;;;;;;5.57;0.90;;;;;;;27.55;39.12;99574.94;5022664;28;20142;-70
2022/07/08 03:36:24;;;;;;;9.27;1.30;;;;;;;27.66;38.99;99579.31;5022608;28;20044;-70
2022/07/08 03:38:50;;;;;;;4.78;0.95;;;;;;;27.76;38.79;99575.78;5039570;28;20067;-70
2022/07/08 03:41:23;;;;;;;0.80;0.80;;;;;;;27.75;38.46;99571.44;5022514;28;20036;-70
2022/07/08 03:43:52;;;;;;;2.05;1.30;;;;;;;28.11;38.40;99580.50;5039199;28;20135;-70
2022/07/08 03:46:19;;;;;;;5.10;1.00;;;;;;;28.01;38.48;99578.56;5055922;28;20047;-70
2022/07/08 03:48:46;;;;;;;2.72;1.10;;;;;;;28.14;38.65;99582.69;5055428;28;20043;-69
2022/07/08 03:51:13;;;;;;;2.33;1.15;;;;;;;28.21;37.96;99589.50;5038534;28;20062;-69
2022/07/08 03:53:39;;;;;;;2.55;1.08;;;;;;;28.27;38.14;99582.13;5022418;28;20070;-71
2022/07/08 03:56:05;;;;;;;1.27;1.00;;;;;;;28.33;37.76;99581.00;5038741;28;20492;-69
2022/07/08 03:58:32;;;;;;;3.70;0.90;;;;;;;28.43;37.56;99570.88;5022276;28;20450;-70
2022/07/08 04:00:58;;;;;;;2.92;1.00;;;;;;;28.33;38.21;99576.38;5055324;28;20048;-69
2022/07/08 04:03:24;;;;;;;3.42;1.20;;;;;;;28.27;37.76;99582.13;5022358;28;20545;-70
2022/07/08 04:05:50;;;;;;;3.28;1.20;;;;;;;28.27;38.10;99580.22;5038945;28;20112;-69
2022/07/08 04:08:16;;;;;;;5.35;1.30;;;;;;;28.34;38.00;99574.47;5071788;28;20032;-68
2022/07/08 04:10:42;;;;;;;7.93;1.00;;;;;;;28.49;37.68;99590.88;5022020;28;20075;-67
2022/07/08 04:13:07;;;;;;;6.00;0.95;;;;;;;28.57;37.77;99602.06;5022166;28;20047;-67
2022/07/08 04:15:33;;;;;;;1.95;1.05;;;;;;;28.66;37.53;99594.13;5038540;28;20044;-69
2022/07/08 04:17:59;;;;;;;2.80;1.05;;;;;;;28.74;37.59;99588.09;5023323;28;20460;-69
2022/07/08 04:20:25;;;;;;;3.83;1.17;;;;;;;28.83;37.38;99592.72;5042287;28;20051;-69
2022/07/08 04:22:51;;;;;;;5.53;1.20;;;;;;;28.89;36.80;99591.59;5059562;28;20415;-70
2022/07/08 04:25:17;;;;;;;4.40;0.90;;;;;;;28.95;36.39;99578.75;5040064;28;20035;-68
2022/07/08 04:27:45;;;;;;;5.25;1.17;;;;;;;29.23;36.15;99569.91;5074024;28;20090;-70
2022/07/08 04:30:11;;;;;;;4.97;1.20;;;;;;;28.99;36.34;99552.47;5073596;28;20712;-69
2022/07/08 04:32:37;;;;;;;4.20;1.00;;;;;;;29.09;35.52;99575.16;5023853;28;20054;-67
2022/07/08 04:35:04;;;;;;;2.13;1.15;;;;;;;29.30;35.26;99576.72;5040922;28;20115;-68
2022/07/08 04:37:30;;;;;;;5.45;1.00;;;;;;;29.17;35.39;99573.75;5057206;28;20071;-68
2022/07/08 04:39:55;;;;;;;2.40;1.00;;;;;;;29.20;34.95;99576.75;5040961;28;20087;-68
2022/07/08 04:42:21;;;;;;;1.30;0.90;;;;;;;29.33;34.91;99580.78;5057577;28;20044;-68
2022/07/08 04:44:54;;;;;;;5.10;1.38;;;;;;;29.46;35.02;99581.00;5074341;28;20043;-71
2022/07/08 04:47:20;;;;;;;6.18;1.10;;;;;;;29.64;34.53;99571.34;5041105;28;20047;-69
2022/07/08 04:49:46;;;;;;;0.80;0.77;;;;;;;29.71;34.68;99569.09;5040643;28;20093;-70
2022/07/08 04:52:12;;;;;;;1.88;1.15;;;;;;;29.87;34.46;99570.66;5074872;28;20551;-70
2022/07/08 04:54:37;;;;;;;3.80;1.05;;;;;;;29.99;34.56;99559.31;5041294;28;20499;-70
2022/07/08 04:57:05;;;;;;;3.97;1.05;;;;;;;30.12;33.54;99540.31;5023685;28;20062;-69
2022/07/08 04:59:31;;;;;;;6.95;3.53;;;;;;;30.07;34.09;99562.28;5024214;28;20047;-69
2022/07/08 05:01:56;;;;;;;3.05;1.30;;;;;;;30.15;34.25;99566.31;5040293;28;20464;-70
2022/07/08 05:04:22;;;;;;;2.85;1.08;;;;;;;30.06;34.02;99540.63;5057492;28;20494;-69
2022/07/08 05:06:48;;;;;;;2.63;1.05;;;;;;;30.05;34.08;99553.50;5057326;28;20070;-69
2022/07/08 05:09:14;;;;;;;3.60;1.17;;;;;;;29.97;34.19;99547.84;5073495;28;20044;-70
2022/07/08 05:11:40;;;;;;;2.60;0.98;;;;;;;30.03;34.57;99546.69;5056187;28;20044;-69
2022/07/08 05:14:05;;;;;;;5.95;1.38;;;;;;;30.15;35.02;99549.88;5039780;28;20070;-69
2022/07/08 05:16:31;;;;;;;4.82;1.10;;;;;;;30.22;34.36;99564.06;5023575;28;20079;-69
2022/07/08 05:18:57;;;;;;;3.90;1.40;;;;;;;30.24;33.92;99554.47;5052891;28;20061;-69
2022/07/08 05:21:23;;;;;;;4.63;1.30;;;;;;;30.43;33.88;99555.38;5070101;28;20127;-68
2022/07/08 05:23:49;;;;;;;2.08;1.20;;;;;;;30.59;33.21;99564.25;5035315;28;20047;-69
2022/07/08 05:26:14;;;;;;;5.25;1.58;;;;;;;30.75;32.78;99569.31;5067996;28;20036;-67
2022/07/08 05:28:40;;;;;;;3.65;1.15;;;;;;;30.75;32.34;99547.38;5067387;28;20051;-69
2022/07/08 05:31:06;;;;;;;4.07;1.17;;;;;;;31.03;32.07;99568.44;5050783;28;20048;-69
2022/07/08 05:33:32;;;;;;;3.20;1.10;;;;;;;31.03;32.04;99560.22;5050806;28;20764;-68
2022/07/08 05:35:58;;;;;;;2.78;1.00;;;;;;;31.06;31.97;99564.31;5051078;28;20058;-68
2022/07/08 05:38:23;;;;;;;2.10;1.17;;;;;;;31.27;31.52;99554.72;5051143;28;20097;-69
2022/07/08 05:40:49;;;;;;;6.63;1.20;;;;;;;31.53;30.81;99569.75;5069102;28;20055;-69
2022/07/08 05:43:15;;;;;;;2.67;1.20;;;;;;;31.77;30.71;99569.69;5036434;28;20044;-69
2022/07/08 05:45:41;;;;;;;4.90;1.27;;;;;;;31.94;30.41;99567.22;5069078;28;20047;-70
2022/07/08 05:48:06;;;;;;;2.45;1.42;;;;;;;32.08;30.13;99579.09;5051821;28;20553;-68
2022/07/08 05:50:32;;;;;;;2.97;1.40;;;;;;;32.20;30.39;99574.75;5052751;28;20131;-69
2022/07/08 05:52:58;;;;;;;4.90;1.42;;;;;;;31.90;30.89;99546.97;5052814;28;20040;-69
2022/07/08 05:55:23;;;;;;;5.18;1.23;;;;;;;31.80;31.11;99577.34;5053055;28;20040;-69
2022/07/08 05:57:49;;;;;;;4.90;1.45;;;;;;;31.65;31.09;99580.28;5069091;28;20044;-69
2022/07/08 06:00:15;;;;;;;2.20;1.38;;;;;;;31.40;31.65;99567.72;5052888;28;20052;-68
2022/07/08 06:02:41;;;;;;;2.75;1.30;;;;;;;31.17;31.64;99567.75;5052588;28;20101;-69
2022/07/08 06:05:07;;;;;;;3.78;1.10;;;;;;;31.18;31.69;99572.94;5052751;28;20519;-69
2022/07/08 06:07:33;;;;;;;4.32;1.50;;;;;;;30.96;31.68;99570.75;5052508;28;20522;-69
2022/07/08 06:09:59;;;;;;;4.47;1.50;;;;;;;30.90;31.87;99558.19;5035767;28;20127;-69
2022/07/08 06:12:25;;;;;;;4.05;1.90;;;;;;;30.56;32.23;99578.56;5052045;28;20492;-71
2022/07/08 06:14:51;;;;;;;3.28;1.70;;;;;;;30.38;31.53;99580.13;5052476;28;20041;-68
2022/07/08 06:17:17;;;;;;;2.33;1.58;;;;;;;30.47;32.87;99572.91;5035485;28;20052;-68
2022/07/08 06:19:42;;;;;;;4.20;1.80;;;;;;;30.74;32.42;99573.16;5018937;28;20036;-68
2022/07/08 06:22:09;;;;;;;1.40;1.30;;;;;;;30.80;31.61;99585.72;5019115;28;20067;-69
2022/07/08 06:24:35;;;;;;;3.28;1.30;;;;;;;30.92;31.56;99588.88;5035770;28;20097;-72
2022/07/08 06:27:00;;;;;;;7.88;1.50;;;;;;;31.08;30.96;99586.78;5035657;28;20044;-73
2022/07/08 06:29:26;;;;;;;3.40;1.27;;;;;;;31.35;30.79;99597.19;5052343;28;20032;-73
2022/07/08 06:31:54;;;;;;;3.35;1.52;;;;;;;31.39;29.88;99585.31;5052725;28;20134;-73
2022/07/08 06:34:20;;;;;;;6.38;1.70;;;;;;;31.82;29.99;99606.13;5052250;28;20040;-73
2022/07/08 06:36:46;;;;;;;7.25;1.48;;;;;;;32.05;29.47;99608.00;5052355;28;20536;-68
2022/07/08 06:39:11;;;;;;;2.70;1.45;;;;;;;32.24;29.19;99595.06;5019034;28;20594;-68
2022/07/08 06:41:37;;;;;;;5.32;1.48;;;;;;;32.52;28.97;99594.03;5051364;28;20059;-72
2022/07/08 06:44:03;;;;;;;4.57;1.60;;;;;;;32.79;28.89;99595.19;5035217;28;20036;-73
2022/07/08 06:46:29;;;;;;;3.25;1.52;;;;;;;32.89;28.34;99575.78;5051657;28;20044;-72
2022/07/08 06:48:55;;;;;;;8.73;1.75;;;;;;;33.28;28.06;99595.31;5051927;28;20105;-71
2022/07/08 06:51:43;;;;;;;6.78;1.40;;;;;;;33.31;27.77;99600.22;5066199;28;20079;-68
2022/07/08 06:56:53;;;;;;;7.25;2.20;;;;;;;33.50;27.67;99603.69;5051851;28;20040;-70
2022/07/08 06:59:21;;;;;;;7.55;1.63;;;;;;;33.58;26.94;99600.22;5067785;28;20044;-68
2022/07/08 07:01:47;;;;;;;4.38;1.70;;;;;;;33.65;27.06;99604.19;5051361;28;20074;-67
2022/07/08 07:04:15;;;;;;;9.27;1.40;;;;;;;33.86;26.74;99596.28;5035102;28;20062;-69
2022/07/08 07:06:40;;;;;;;5.97;1.60;;;;;;;33.98;26.71;99596.56;5018319;28;20093;-68
2022/07/08 07:09:08;;;;;;;3.65;1.58;;;;;;;33.91;26.17;99599.75;5034448;28;20036;-70
2022/07/08 07:11:35;;;;;;;2.20;1.30;;;;;;;33.86;24.99;99590.75;5067792;28;20094;-73
2022/07/08 07:14:02;;;;;;;3.70;1.40;;;;;;;34.24;25.64;99589.28;5052348;28;20045;-72
2022/07/08 07:16:28;;;;;;;2.85;1.30;;;;;;;34.78;24.78;99590.94;5068731;28;20492;-72
2022/07/08 07:18:53;;;;;;;3.47;1.48;;;;;;;35.17;24.83;99588.19;5068305;28;20056;-71
2022/07/08 07:21:22;;;;;;;3.25;1.40;;;;;;;35.58;24.27;99588.66;5035739;28;20154;-72
2022/07/08 07:23:47;;;;;;;3.50;1.45;;;;;;;35.94;23.86;99589.16;5051904;28;20076;-72
2022/07/08 07:26:13;;;;;;;5.72;1.40;;;;;;;36.08;23.42;99602.81;5051664;28;20560;-71
2022/07/08 07:28:39;;;;;;;2.08;1.00;;;;;;;36.15;23.13;99600.38;5069006;28;20122;-72
2022/07/08 07:31:07;;;;;;;4.70;1.30;;;;;;;36.31;23.24;99593.22;5034645;28;20055;-71
2022/07/08 07:33:33;;;;;;;4.28;1.27;;;;;;;36.34;22.50;99606.41;5052014;28;20174;-71
2022/07/08 07:35:59;;;;;;;5.63;1.40;;;;;;;36.23;23.29;99603.13;5034784;28;20048;-72
2022/07/08 07:38:25;;;;;;;4.20;1.85;;;;;;;36.23;23.07;99605.09;5051751;28;20127;-71
2022/07/08 07:40:50;;;;;;;3.75;1.40;;;;;;;36.43;23.10;99598.94;5051096;28;20048;-71
2022/07/08 07:43:16;;;;;;;6.53;1.50;;;;;;;36.94;22.58;99596.81;5018076;28;20044;-72
2022/07/08 07:45:42;;;;;;;5.50;1.52;;;;;;;37.32;22.20;99591.28;5067488;28;20500;-71
2022/07/08 07:48:09;;;;;;;7.05;2.08;;;;;;;37.42;21.05;99601.97;5017676;28;20044;-72
2022/07/08 07:50:34;;;;;;;4.15;1.30;;;;;;;37.46;21.13;99591.84;5017940;28;20420;-71
2022/07/08 07:53:00;;;;;;;5.30;1.90;;;;;;;37.28;21.24;99593.09;5037544;28;20408;-73
2022/07/08 07:55:26;;;;;;;5.18;1.58;;;;;;;37.00;21.59;99595.50;5052399;28;20064;-71
2022/07/08 07:57:52;;;;;;;8.88;1.67;;;;;;;37.52;21.03;99600.78;5071473;28;20048;-71
2022/07/08 08:00:18;;;;;;;8.77;1.73;;;;;;;38.60;19.83;99601.38;5054916;28;20044;-72
2022/07/08 08:02:44;;;;;;;6.65;1.33;;;;;;;38.90;18.21;99594.50;5066773;28;20070;-72
2022/07/08 08:05:10;;;;;;;3.83;1.40;;;;;;;39.52;17.70;99594.19;5043170;28;20055;-72
2022/07/08 08:07:37;;;;;;;5.68;1.30;;;;;;;41.00;16.05;99600.06;5041084;28;20093;-72
2022/07/08 08:10:03;;;;;;;9.00;1.30;;;;;;;42.92;14.42;99599.09;5091212;28;20790;-73
2022/07/08 08:12:29;;;;;;;9.48;1.30;;;;;;;44.58;12.80;99603.91;5090085;28;20126;-73
2022/07/08 08:14:55;;;;;;;7.70;1.50;;;;;;;45.77;11.90;99612.59;5037447;28;20127;-71
2022/07/08 08:17:20;;;;;;;7.80;1.25;;;;;;;46.01;11.47;99614.69;5086642;28;20602;-73
2022/07/08 08:19:46;;;;;;;5.15;1.10;;;;;;;46.26;11.15;99608.41;5041372;28;20504;-73
2022/07/08 08:22:12;;;;;;;1.30;1.05;;;;;;;45.94;10.83;99592.22;5074389;28;20519;-74
2022/07/08 08:24:38;;;;;;;1.80;0.98;;;;;;;45.62;11.15;99604.44;5074416;28;20047;-72
2022/07/08 08:27:04;;;;;;;6.68;1.30;;;;;;;45.04;11.56;99606.41;5091232;28;20044;-74
2022/07/08 08:29:29;;;;;;;2.92;1.20;;;;;;;44.69;11.85;99588.03;5041722;28;20214;-73
2022/07/08 08:31:55;;;;;;;3.00;1.10;;;;;;;45.52;11.35;99605.16;5074638;28;20044;-73
2022/07/08 08:34:21;;;;;;;2.90;1.20;;;;;;;47.03;10.33;99608.59;5074267;28;20072;-73
2022/07/08 08:36:47;;;;;;;8.63;1.17;;;;;;;47.92;10.02;99604.47;5074122;28;20048;-73
2022/07/08 08:39:13;;;;;;;6.72;1.30;;;;;;;49.17;8.56;99595.69;5057848;28;20059;-74
2022/07/08 08:41:41;;;;;;;4.85;1.38;;;;;;;49.37;8.41;99602.38;5074409;28;20052;-77
2022/07/08 08:44:07;;;;;;;4.97;1.10;;;;;;;49.25;8.69;99612.16;5057510;28;20135;-73
2022/07/08 08:46:36;;;;;;;3.80;1.10;;;;;;;48.43;8.96;99604.66;5074066;28;20070;-74
2022/07/08 08:49:05;;;;;;;5.07;1.10;;;;;;;47.21;9.84;99606.63;5089566;28;20489;-74
2022/07/08 08:51:32;;;;;;;2.75;1.02;;;;;;;45.68;10.79;99589.66;5061941;28;20156;-74
2022/07/08 08:53:58;;;;;;;8.38;1.30;;;;;;;44.34;11.60;99598.06;5047853;28;20032;-73
2022/07/08 08:56:26;;;;;;;6.13;1.48;;;;;;;43.35;12.64;99590.25;5073569;28;20484;-72
2022/07/08 08:58:53;;;;;;;5.30;1.58;;;;;;;42.59;13.27;99604.47;5067957;28;20123;-73
2022/07/08 09:01:22;;;;;;;7.72;1.50;;;;;;;42.08;13.71;99603.84;5068826;28;20047;-72
2022/07/08 09:03:48;;;;;;;4.03;1.33;;;;;;;42.22;13.39;99604.13;5047461;28;20911;-72
2022/07/08 09:06:14;;;;;;;6.93;1.42;;;;;;;43.09;12.78;99604.19;5031426;28;20047;-72
2022/07/08 09:08:40;;;;;;;7.88;3.08;;;;;;;44.89;11.06;99608.25;5069780;28;20072;-72
2022/07/08 09:11:06;;;;;;;7.90;1.30;;;;;;;45.60;10.57;99618.06;5035822;28;20048;-73
2022/07/08 09:13:32;;;;;;;4.53;1.38;;;;;;;45.62;10.59;99610.06;5052760;28;20051;-73
2022/07/08 09:15:59;;;;;;;7.40;1.20;;;;;;;45.28;11.13;99620.63;5070068;28;20496;-73
2022/07/08 09:18:35;;;;;;;4.50;1.38;;;;;;;44.66;11.28;99608.44;5038841;28;20060;-73
2022/07/08 09:21:02;;;;;;;7.85;1.60;;;;;;;45.04;11.23;99618.41;5089092;28;20048;-73
2022/07/08 09:23:30;;;;;;;4.63;1.67;;;;;;;46.32;10.34;99618.06;5039837;28;20044;-73
2022/07/08 09:26:01;;;;;;;14.00;1.65;;;;;;;46.86;9.79;99613.00;5040329;28;20093;-73
2022/07/08 09:28:35;;;;;;;4.53;1.58;;;;;;;46.74;9.70;99615.38;5040156;28;20048;-72
2022/07/08 09:31:03;;;;;;;9.38;2.08;;;;;;;46.41;10.26;99613.66;5072517;28;20036;-73
2022/07/08 09:33:29;;;;;;;3.15;1.23;;;;;;;45.35;10.76;99603.84;5055898;28;20055;-74
2022/07/08 09:35:56;;;;;;;6.35;1.33;;;;;;;44.13;11.67;99584.59;5073172;28;20495;-73
2022/07/08 09:38:23;;;;;;;5.35;1.42;;;;;;;43.78;12.11;99584.09;5091141;28;20036;-73
2022/07/08 09:40:55;;;;;;;5.43;1.33;;;;;;;44.10;11.68;99582.53;5072750;28;20147;-73
2022/07/08 09:43:21;;;;;;;2.75;1.20;;;;;;;44.30;11.66;99598.00;5055868;28;20048;-71
2022/07/08 09:45:47;;;;;;;7.57;1.20;;;;;;;45.40;10.78;99597.91;5039926;28;20500;-74
2022/07/08 09:48:15;;;;;;;3.70;1.50;;;;;;;46.19;10.39;99584.69;5039541;28;20046;-72
2022/07/08 09:50:47;;;;;;;5.50;1.60;;;;;;;48.42;8.76;99601.06;5038951;28;20036;-72
2022/07/08 09:53:17;;;;;;;2.90;1.17;;;;;;;50.08;8.05;99601.22;5055634;28;20051;-71
2022/07/08 09:55:51;;;;;;;3.35;1.05;;;;;;;50.93;6.82;99602.81;5055795;28;20048;-72
2022/07/08 09:58:21;;;;;;;4.22;1.50;;;;;;;50.12;7.41;99604.78;5089843;28;20130;-73
2022/07/08 10:00:49;;;;;;;4.68;1.40;;;;;;;50.10;7.44;99587.44;5048652;28;20032;-72
2022/07/08 10:03:15;;;;;;;3.58;1.10;;;;;;;50.10;7.54;99578.19;5035455;28;20082;-71
2022/07/08 10:05:42;;;;;;;6.38;1.30;;;;;;;49.07;8.19;99594.59;5069124;28;20396;-71
2022/07/08 10:08:08;;;;;;;7.22;1.65;;;;;;;48.49;8.63;99581.25;5068787;28;20055;-72
2022/07/08 10:10:35;;;;;;;6.55;1.17;;;;;;;47.35;9.17;99575.63;5068825;28;20047;-71
2022/07/08 10:13:01;;;;;;;6.13;1.08;;;;;;;47.94;9.15;99579.53;5069768;28;20050;-73
2022/07/08 10:15:28;;;;;;;7.88;1.25;;;;;;;49.63;7.50;99594.03;5059377;28;20044;-72
2022/07/08 10:17:58;;;;;;;12.32;1.35;;;;;;;51.36;6.56;99573.41;5083896;28;20056;-73
2022/07/08 10:20:25;;;;;;;7.45;1.27;;;;;;;52.97;6.00;99588.13;5068237;28;20040;-72
2022/07/08 10:22:58;;;;;;;3.75;1.63;;;;;;;54.00;5.20;99601.16;5068740;28;20067;-73
2022/07/08 10:25:25;;;;;;;6.20;1.30;;;;;;;55.01;5.02;99587.81;5069197;28;20036;-73
2022/07/08 10:27:50;;;;;;;5.05;1.70;;;;;;;55.69;4.22;99585.78;5035842;28;20174;-74
2022/07/08 10:30:18;;;;;;;3.45;1.30;;;;;;;55.48;4.61;99585.78;5052161;28;20066;-73
2022/07/08 10:32:48;;;;;;;2.72;1.05;;;;;;;54.17;4.84;99588.44;5068472;28;20052;-72
2022/07/08 10:35:18;;;;;;;6.05;1.40;;;;;;;52.88;5.72;99571.72;5052168;28;20052;-73
2022/07/08 10:37:58;;;;;;;4.18;1.30;;;;;;;51.91;6.13;99569.88;5079091;28;20097;-72
2022/07/08 10:40:42;;;;;;;7.65;1.50;;;;;;;50.55;6.66;99569.03;5088334;28;20078;-71
2022/07/08 10:43:27;;;;;;;6.00;1.30;;;;;;;50.84;7.12;99572.22;5070548;28;20044;-72
2022/07/08 10:46:13;;;;;;;6.68;1.15;;;;;;;51.99;5.96;99571.34;5088418;28;20051;-72
2022/07/08 10:48:43;;;;;;;8.00;1.75;;;;;;;53.04;5.24;99576.59;5084528;28;20068;-72
2022/07/08 10:51:18;;;;;;;3.08;1.27;;;;;;;53.94;4.90;99581.03;5069489;28;20055;-73
2022/07/08 10:53:52;;;;;;;5.15;1.20;;;;;;;54.38;4.90;99574.38;5034266;28;20055;-71
2022/07/08 10:56:49;;;;;;;4.45;1.58;;;;;;;54.75;4.57;99578.50;5069186;28;20106;-71
2022/07/08 10:59:19;;;;;;;4.65;1.55;;;;;;;54.87;4.56;99565.53;5051562;28;20068;-72
2022/07/08 11:01:57;;;;;;;4.13;1.10;;;;;;;54.93;4.27;99555.16;5050744;28;20574;-73
2022/07/08 11:04:29;;;;;;;9.80;1.17;;;;;;;54.22;4.84;99553.81;5050148;28;20076;-71
2022/07/08 11:07:20;;;;;;;2.70;1.13;;;;;;;52.29;5.32;99561.75;5035141;28;20041;-71
2022/07/08 11:09:57;;;;;;;5.78;1.60;;;;;;;50.18;6.99;99555.03;5067874;28;20047;-72
2022/07/08 11:12:30;;;;;;;2.83;1.20;;;;;;;48.57;7.86;99551.00;5050754;28;20135;-72
2022/07/08 11:14:57;;;;;;;2.58;1.27;;;;;;;47.04;8.80;99539.88;5018754;28;20047;-72
2022/07/08 11:17:25;;;;;;;2.63;1.30;;;;;;;45.82;9.66;99544.03;5067995;28;20057;-71
2022/07/08 11:19:52;;;;;;;5.10;1.35;;;;;;;45.00;10.13;99530.63;5035158;28;20110;-72
2022/07/08 11:22:21;;;;;;;4.05;1.30;;;;;;;44.54;10.75;99540.63;5050483;28;20055;-72
2022/07/08 11:24:48;;;;;;;3.20;1.35;;;;;;;43.97;11.24;99521.59;5039553;28;20044;-71
2022/07/08 11:27:15;;;;;;;4.75;1.58;;;;;;;43.38;11.37;99521.56;5089819;28;20040;-72
2022/07/08 11:29:51;;;;;;;5.57;1.40;;;;;;;42.96;12.10;99525.31;5075754;28;20048;-71
2022/07/08 11:32:21;;;;;;;5.18;1.30;;;;;;;42.42;12.35;99521.97;5091867;28;20499;-72
2022/07/08 11:34:48;;;;;;;5.03;1.33;;;;;;;41.78;12.65;99491.16;5090338;28;20172;-72
2022/07/08 11:37:14;;;;;;;8.15;1.20;;;;;;;41.59;13.07;99521.84;5071803;28;20101;-70
2022/07/08 11:39:41;;;;;;;3.10;1.40;;;;;;;41.28;13.76;99522.75;5064879;28;20047;-70